createdAt,value
2023-04-21T00:00:03.671Z,977.02
2023-04-21T00:01:03.623Z,976.99
2023-04-21T00:02:03.285Z,977.07
2023-04-21T00:03:03.677Z,976.96
2023-04-21T00:04:03.466Z,976.91
2023-04-21T00:05:03.504Z,976.96
2023-04-21T00:06:03.218Z,977.02
2023-04-21T00:07:03.244Z,976.99
2023-04-21T00:08:03.287Z,977.02
2023-04-21T00:09:03.321Z,976.96
2023-04-21T00:10:03.456Z,977.02
2023-04-21T00:11:03.590Z,976.96
2023-04-21T00:12:03.539Z,976.91
2023-04-21T00:13:03.647Z,976.91
2023-04-21T00:14:03.589Z,976.93
2023-04-21T00:15:03.577Z,976.74
2023-04-21T00:16:03.745Z,976.85
2023-04-21T00:17:03.666Z,976.72
2023-04-21T00:18:03.830Z,976.85
2023-04-21T00:19:03.826Z,976.74
2023-04-21T00:20:03.784Z,976.79
2023-04-21T00:21:03.898Z,976.79
2023-04-21T00:22:02.939Z,976.76
2023-04-21T00:23:03.116Z,976.79
2023-04-21T00:24:03.008Z,976.76
2023-04-21T00:25:02.932Z,976.85
2023-04-21T00:26:03.324Z,976.74
2023-04-21T00:27:03.064Z,976.69
2023-04-21T00:28:03.094Z,976.76
2023-04-21T00:29:03.136Z,976.79
2023-04-21T00:30:03.056Z,976.61
2023-04-21T00:31:03.157Z,976.74
2023-04-21T00:32:03.058Z,976.76
2023-04-21T00:33:03.070Z,976.82
2023-04-21T00:34:02.945Z,976.77
2023-04-21T00:35:02.999Z,976.77
2023-04-21T00:36:03.049Z,976.77
2023-04-21T00:37:02.963Z,976.85
2023-04-21T00:38:02.992Z,976.88
2023-04-21T00:39:02.916Z,976.88
2023-04-21T00:40:02.988Z,976.85
2023-04-21T00:41:03.039Z,976.76
2023-04-21T00:42:03.086Z,976.74
2023-04-21T00:43:03.081Z,976.79
2023-04-21T00:44:03.177Z,976.79
2023-04-21T00:45:03.132Z,976.79
2023-04-21T00:46:03.246Z,976.74
2023-04-21T00:47:03.529Z,976.69
2023-04-21T00:48:03.433Z,976.74
2023-04-21T00:49:03.266Z,976.93
2023-04-21T00:50:03.276Z,976.74
2023-04-21T00:51:03.140Z,976.79
2023-04-21T00:52:03.121Z,976.72
2023-04-21T00:53:03.094Z,976.77
2023-04-21T00:54:03.075Z,976.72
2023-04-21T00:55:03.184Z,976.82
2023-04-21T00:56:03.110Z,976.79
2023-04-21T00:57:03.359Z,976.96
2023-04-21T00:58:03.029Z,976.79
2023-04-21T00:59:03.022Z,976.91
2023-04-21T01:00:03.177Z,976.80
2023-04-21T01:01:03.230Z,976.88
2023-04-21T01:02:03.383Z,976.80
2023-04-21T01:03:03.742Z,976.91
2023-04-21T01:04:03.625Z,976.97
2023-04-21T01:05:03.397Z,976.77
2023-04-21T01:06:03.436Z,976.80
2023-04-21T01:07:03.576Z,976.85
2023-04-21T01:08:03.638Z,976.83
2023-04-21T01:09:03.749Z,976.80
2023-04-21T01:10:03.850Z,976.74
2023-04-21T01:11:03.858Z,976.91
2023-04-21T01:12:03.847Z,976.74
2023-04-21T01:13:03.737Z,976.70
2023-04-21T01:14:03.794Z,976.80
2023-04-21T01:15:03.779Z,976.75
2023-04-21T01:16:03.833Z,976.80
2023-04-21T01:17:04.009Z,976.73
2023-04-21T01:18:03.919Z,976.67
2023-04-21T01:19:03.827Z,976.78
2023-04-21T01:20:03.838Z,976.73
2023-04-21T01:21:03.737Z,976.73
2023-04-21T01:22:03.841Z,976.73
2023-04-21T01:23:03.889Z,976.75
2023-04-21T01:24:03.926Z,976.81
2023-04-21T01:25:03.787Z,976.75
2023-04-21T01:26:03.858Z,976.75
2023-04-21T01:27:03.796Z,976.81
2023-04-21T01:28:03.866Z,976.75
2023-04-21T01:29:03.777Z,976.78
2023-04-21T01:30:03.852Z,976.87
2023-04-21T01:31:03.792Z,976.87
2023-04-21T01:32:03.859Z,976.90
2023-04-21T01:33:04.011Z,976.79
2023-04-21T01:34:03.808Z,976.84
2023-04-21T01:35:03.878Z,976.84
2023-04-21T01:36:03.970Z,976.84
2023-04-21T01:37:03.896Z,976.93
2023-04-21T01:38:02.932Z,976.87
2023-04-21T01:39:03.018Z,977.02
2023-04-21T01:40:03.121Z,976.90
2023-04-21T01:41:03.119Z,976.99
2023-04-21T01:42:03.234Z,976.96
2023-04-21T01:43:03.217Z,976.88
2023-04-21T01:44:03.340Z,976.88
2023-04-21T01:45:03.377Z,976.88
2023-04-21T01:46:03.393Z,976.85
2023-04-21T01:47:03.395Z,976.83
2023-04-21T01:48:03.482Z,976.94
2023-04-21T01:49:03.348Z,976.91
2023-04-21T01:50:03.356Z,976.80
2023-04-21T01:51:03.481Z,976.86
2023-04-21T01:52:03.503Z,976.91
2023-04-21T01:53:03.564Z,976.83
2023-04-21T01:54:03.638Z,976.80
2023-04-21T01:55:03.803Z,976.97
2023-04-21T01:56:03.756Z,976.75
2023-04-21T01:57:03.821Z,976.86
2023-04-21T01:58:03.813Z,976.86
2023-04-21T01:59:03.765Z,976.75
2023-04-21T02:00:03.811Z,976.87
2023-04-21T02:01:03.854Z,976.81
2023-04-21T02:02:04.090Z,976.87
2023-04-21T02:03:04.113Z,976.78
2023-04-21T02:04:04.333Z,976.84
2023-04-21T02:05:03.767Z,976.74
2023-04-21T02:06:03.805Z,976.81
2023-04-21T02:07:03.812Z,976.71
2023-04-21T02:08:03.917Z,976.74
2023-04-21T02:09:03.900Z,976.68
2023-04-21T02:10:03.040Z,976.74
2023-04-21T02:11:03.032Z,976.75
2023-04-21T02:12:03.018Z,976.81
2023-04-21T02:13:03.117Z,976.71
2023-04-21T02:14:03.049Z,976.74
2023-04-21T02:15:03.122Z,976.65
2023-04-21T02:16:14.314Z,976.78
2023-04-21T02:17:03.096Z,976.68
2023-04-21T02:18:03.285Z,976.75
2023-04-21T02:19:03.277Z,976.71
2023-04-21T02:20:04.535Z,976.71
2023-04-21T02:21:03.344Z,976.65
2023-04-21T02:22:03.302Z,976.68
2023-04-21T02:23:03.289Z,976.71
2023-04-21T02:24:03.267Z,976.71
2023-04-21T02:25:03.519Z,976.68
2023-04-21T02:26:03.455Z,976.81
2023-04-21T02:27:03.447Z,976.84
2023-04-21T02:28:03.859Z,976.76
2023-04-21T02:29:03.784Z,976.81
2023-04-21T02:30:04.073Z,976.71
2023-04-21T02:31:04.033Z,976.81
2023-04-21T02:32:25.353Z,976.95
2023-04-21T02:33:03.962Z,976.74
2023-04-21T02:34:02.890Z,976.82
2023-04-21T02:35:02.984Z,976.71
2023-04-21T02:36:02.973Z,976.71
2023-04-21T02:37:02.907Z,976.71
2023-04-21T02:38:02.968Z,976.79
2023-04-21T02:39:03.918Z,976.74
2023-04-21T02:40:02.948Z,976.88
2023-04-21T02:41:02.950Z,976.72
2023-04-21T02:42:02.978Z,976.82
2023-04-21T02:43:02.950Z,976.74
2023-04-21T02:44:03.899Z,976.91
2023-04-21T02:45:03.068Z,976.88
2023-04-21T02:46:02.995Z,976.88
2023-04-21T02:47:03.264Z,976.72
2023-04-21T02:48:03.193Z,976.77
2023-04-21T02:49:03.009Z,976.85
2023-04-21T02:50:03.080Z,976.77
2023-04-21T02:51:03.079Z,976.77
2023-04-21T02:52:03.019Z,976.82
2023-04-21T02:53:03.091Z,976.85
2023-04-21T02:54:03.078Z,976.94
2023-04-21T02:55:03.185Z,976.77
2023-04-21T02:56:03.099Z,976.80
2023-04-21T02:57:03.068Z,976.80
2023-04-21T02:58:03.167Z,976.83
2023-04-21T02:59:03.215Z,976.97
2023-04-21T03:00:03.122Z,976.89
2023-04-21T03:01:03.139Z,976.92
2023-04-21T03:02:03.173Z,976.81
2023-04-21T03:03:03.688Z,976.89
2023-04-21T03:04:03.206Z,976.84
2023-04-21T03:05:03.209Z,976.84
2023-04-21T03:06:03.272Z,976.78
2023-04-21T03:07:03.220Z,976.78
2023-04-21T03:08:03.176Z,976.98
2023-04-21T03:09:03.161Z,976.90
2023-04-21T03:10:03.089Z,976.84
2023-04-21T03:11:03.195Z,976.87
2023-04-21T03:12:03.212Z,976.93
2023-04-21T03:13:03.220Z,976.79
2023-04-21T03:14:03.259Z,976.85
2023-04-21T03:15:03.223Z,976.87
2023-04-21T03:16:03.323Z,976.96
2023-04-21T03:17:03.246Z,976.72
2023-04-21T03:18:03.294Z,976.76
2023-04-21T03:19:03.408Z,976.82
2023-04-21T03:20:03.425Z,976.88
2023-04-21T03:21:03.434Z,976.74
2023-04-21T03:22:03.424Z,976.72
2023-04-21T03:23:03.393Z,976.85
2023-04-21T03:24:03.407Z,976.91
2023-04-21T03:25:03.316Z,976.83
2023-04-21T03:26:03.271Z,976.91
2023-04-21T03:27:03.263Z,976.91
2023-04-21T03:28:03.437Z,976.80
2023-04-21T03:29:03.322Z,976.94
2023-04-21T03:30:03.384Z,976.80
2023-04-21T03:31:03.324Z,976.92
2023-04-21T03:32:03.568Z,976.89
2023-04-21T03:33:03.554Z,976.86
2023-04-21T03:34:03.483Z,976.86
2023-04-21T03:35:03.451Z,976.89
2023-04-21T03:36:03.446Z,976.98
2023-04-21T03:37:03.346Z,976.90
2023-04-21T03:38:04.614Z,976.87
2023-04-21T03:40:03.188Z,976.87
2023-04-21T03:41:03.217Z,976.96
2023-04-21T03:42:03.380Z,976.85
2023-04-21T03:43:03.284Z,976.88
2023-04-21T03:44:03.234Z,976.72
2023-04-21T03:45:03.388Z,976.76
2023-04-21T03:46:03.548Z,977.05
2023-04-21T03:47:03.440Z,976.82
2023-04-21T03:48:03.463Z,976.91
2023-04-21T03:49:04.262Z,976.85
2023-04-21T03:50:03.292Z,976.85
2023-04-21T03:51:03.325Z,976.85
2023-04-21T03:52:03.237Z,976.80
2023-04-21T03:53:03.228Z,976.74
2023-04-21T03:54:03.172Z,976.88
2023-04-21T03:55:03.252Z,976.80
2023-04-21T03:56:03.277Z,976.83
2023-04-21T03:57:03.138Z,976.94
2023-04-21T03:58:03.225Z,976.83
2023-04-21T03:59:03.156Z,977.00
2023-04-21T04:00:03.158Z,976.80
2023-04-21T04:01:03.221Z,976.97
2023-04-21T04:02:03.400Z,976.83
2023-04-21T04:03:03.481Z,976.86
2023-04-21T04:04:03.856Z,976.83
2023-04-21T04:05:03.476Z,976.83
2023-04-21T04:06:03.205Z,976.81
2023-04-21T04:07:03.229Z,976.86
2023-04-21T04:08:03.266Z,977.00
2023-04-21T04:09:03.090Z,976.92
2023-04-21T04:10:03.076Z,976.95
2023-04-21T04:11:03.189Z,976.86
2023-04-21T04:12:03.191Z,976.98
2023-04-21T04:13:03.211Z,976.86
2023-04-21T04:14:03.267Z,976.98
2023-04-21T04:15:03.175Z,976.81
2023-04-21T04:16:03.392Z,976.92
2023-04-21T04:17:03.256Z,976.84
2023-04-21T04:18:03.364Z,977.06
2023-04-21T04:19:03.474Z,977.06
2023-04-21T04:20:03.410Z,976.98
2023-04-21T04:21:03.365Z,976.95
2023-04-21T04:22:03.273Z,976.92
2023-04-21T04:23:03.356Z,977.03
2023-04-21T04:24:03.317Z,976.95
2023-04-21T04:25:04.876Z,976.95
2023-04-21T04:26:04.018Z,976.98
2023-04-21T04:27:03.145Z,977.01
2023-04-21T04:28:03.027Z,977.06
2023-04-21T04:29:03.151Z,977.06
2023-04-21T04:30:03.145Z,977.09
2023-04-21T04:31:03.286Z,977.01
2023-04-21T04:32:04.125Z,977.06
2023-04-21T04:33:03.209Z,976.98
2023-04-21T04:34:02.979Z,976.98
2023-04-21T04:35:04.903Z,977.09
2023-04-21T04:36:03.683Z,977.04
2023-04-21T04:37:03.660Z,977.07
2023-04-21T04:38:03.687Z,977.15
2023-04-21T04:39:03.585Z,977.01
2023-04-21T04:40:03.682Z,977.01
2023-04-21T04:41:03.744Z,977.15
2023-04-21T04:42:03.754Z,977.07
2023-04-21T04:43:03.828Z,977.09
2023-04-21T04:44:03.818Z,977.12
2023-04-21T04:45:03.934Z,977.15
2023-04-21T04:46:03.874Z,977.09
2023-04-21T04:47:03.995Z,977.01
2023-04-21T04:48:03.899Z,976.81
2023-04-21T04:49:03.910Z,977.00
2023-04-21T04:50:04.099Z,976.97
2023-04-21T04:51:03.817Z,976.88
2023-04-21T04:52:03.869Z,976.99
2023-04-21T04:53:03.864Z,977.01
2023-04-21T04:54:03.864Z,976.89
2023-04-21T04:55:03.963Z,976.73
2023-04-21T04:56:03.859Z,976.85
2023-04-21T04:57:03.931Z,976.87
2023-04-21T04:58:03.914Z,976.84
2023-04-21T04:59:03.890Z,976.83
2023-04-21T05:00:02.999Z,976.82
2023-04-21T05:01:03.089Z,976.98
2023-04-21T05:02:03.235Z,976.95
2023-04-21T05:03:03.171Z,976.92
2023-04-21T05:04:03.653Z,976.80
2023-04-21T05:05:03.297Z,976.74
2023-04-21T05:06:03.295Z,976.95
2023-04-21T05:07:03.297Z,976.81
2023-04-21T05:08:03.301Z,976.86
2023-04-21T05:09:03.161Z,976.88
2023-04-21T05:10:03.287Z,976.82
2023-04-21T05:11:03.448Z,976.99
2023-04-21T05:12:03.365Z,976.90
2023-04-21T05:13:03.354Z,976.87
2023-04-21T05:14:03.482Z,976.86
2023-04-21T05:15:03.437Z,977.06
2023-04-21T05:16:03.703Z,977.03
2023-04-21T05:17:03.859Z,976.91
2023-04-21T05:18:03.941Z,976.91
2023-04-21T05:19:03.643Z,977.05
2023-04-21T05:20:03.999Z,977.08
2023-04-21T05:21:03.817Z,977.13
2023-04-21T05:22:03.942Z,977.12
2023-04-21T05:23:03.959Z,977.03
2023-04-21T05:24:03.853Z,977.00
2023-04-21T05:25:03.825Z,977.11
2023-04-21T05:26:05.278Z,977.02
2023-04-21T05:27:03.101Z,977.04
2023-04-21T05:28:02.939Z,977.09
2023-04-21T05:29:03.115Z,977.02
2023-04-21T05:30:03.045Z,977.05
2023-04-21T05:31:03.016Z,976.90
2023-04-21T05:32:03.217Z,977.06
2023-04-21T05:33:03.211Z,977.05
2023-04-21T05:34:03.078Z,977.10
2023-04-21T05:35:02.993Z,976.95
2023-04-21T05:36:02.935Z,977.03
2023-04-21T05:37:03.008Z,977.06
2023-04-21T05:38:03.107Z,977.11
2023-04-21T05:39:03.117Z,977.19
2023-04-21T05:40:03.178Z,977.01
2023-04-21T05:41:03.240Z,977.03
2023-04-21T05:42:03.167Z,976.97
2023-04-21T05:43:03.170Z,977.19
2023-04-21T05:44:03.305Z,977.22
2023-04-21T05:45:03.360Z,977.10
2023-04-21T05:46:03.572Z,977.09
2023-04-21T05:47:03.546Z,977.23
2023-04-21T05:48:03.907Z,977.31
2023-04-21T05:49:03.797Z,977.33
2023-04-21T05:50:03.960Z,977.36
2023-04-21T05:51:03.060Z,977.33
2023-04-21T05:52:03.160Z,977.35
2023-04-21T05:53:03.100Z,977.46
2023-04-21T05:54:02.959Z,977.40
2023-04-21T05:55:03.073Z,977.54
2023-04-21T05:56:03.693Z,977.39
2023-04-21T05:57:03.899Z,977.62
2023-04-21T05:58:03.346Z,977.56
2023-04-21T05:59:03.367Z,977.61
2023-04-21T06:00:03.631Z,977.71
2023-04-21T06:01:03.448Z,977.74
2023-04-21T06:02:03.574Z,977.58
2023-04-21T06:03:03.604Z,977.82
2023-04-21T06:04:03.973Z,977.79
2023-04-21T06:05:03.913Z,977.73
2023-04-21T06:06:03.797Z,977.96
2023-04-21T06:07:03.655Z,977.90
2023-04-21T06:08:03.752Z,977.96
2023-04-21T06:09:03.706Z,977.90
2023-04-21T06:10:03.808Z,978.01
2023-04-21T06:11:03.919Z,977.90
2023-04-21T06:12:03.928Z,977.81
2023-04-21T06:13:02.963Z,977.95
2023-04-21T06:14:02.916Z,977.83
2023-04-21T06:15:02.965Z,977.89
2023-04-21T06:16:03.129Z,977.97
2023-04-21T06:17:03.119Z,977.85
2023-04-21T06:18:03.188Z,977.91
2023-04-21T06:19:03.047Z,977.82
2023-04-21T06:20:03.121Z,977.90
2023-04-21T06:21:03.201Z,978.02
2023-04-21T06:22:04.021Z,977.93
2023-04-21T06:23:03.134Z,977.99
2023-04-21T06:24:03.144Z,978.04
2023-04-21T06:25:03.260Z,977.90
2023-04-21T06:26:03.177Z,977.95
2023-04-21T06:27:03.128Z,978.01
2023-04-21T06:28:03.292Z,977.98
2023-04-21T06:29:03.291Z,977.95
2023-04-21T06:30:03.342Z,978.06
2023-04-21T06:31:07.962Z,977.97
2023-04-21T06:32:03.293Z,977.94
2023-04-21T06:33:03.202Z,978.03
2023-04-21T06:34:03.169Z,978.05
2023-04-21T06:35:03.205Z,978.08
2023-04-21T06:36:03.116Z,977.85
2023-04-21T06:37:03.142Z,978.07
2023-04-21T06:38:03.179Z,977.93
2023-04-21T06:39:03.253Z,978.18
2023-04-21T06:40:03.103Z,978.04
2023-04-21T06:41:03.156Z,977.95
2023-04-21T06:42:03.108Z,977.95
2023-04-21T06:43:03.197Z,978.15
2023-04-21T06:44:03.131Z,978.03
2023-04-21T06:45:03.192Z,978.00
2023-04-21T06:46:03.088Z,978.12
2023-04-21T06:47:03.125Z,978.09
2023-04-21T06:48:03.217Z,978.14
2023-04-21T06:49:03.077Z,978.20
2023-04-21T06:50:03.169Z,978.17
2023-04-21T06:51:03.227Z,978.25
2023-04-21T06:52:03.240Z,977.93
2023-04-21T06:53:03.300Z,978.19
2023-04-21T06:54:03.260Z,978.10
2023-04-21T06:55:03.196Z,978.22
2023-04-21T06:56:03.084Z,978.18
2023-04-21T06:57:03.053Z,978.15
2023-04-21T06:58:03.014Z,978.07
2023-04-21T06:59:03.017Z,977.98
2023-04-21T07:00:03.071Z,978.04
2023-04-21T07:01:03.244Z,978.09
2023-04-21T07:02:03.234Z,978.20
2023-04-21T07:03:03.387Z,978.20
2023-04-21T07:04:03.384Z,978.11
2023-04-21T07:05:03.237Z,978.19
2023-04-21T07:06:03.067Z,978.08
2023-04-21T07:07:03.782Z,978.05
2023-04-21T07:08:03.015Z,977.99
2023-04-21T07:09:03.008Z,978.05
2023-04-21T07:10:03.189Z,978.02
2023-04-21T07:11:03.006Z,978.10
2023-04-21T07:12:03.156Z,978.07
2023-04-21T07:13:03.042Z,978.07
2023-04-21T07:14:03.093Z,977.98
2023-04-21T07:15:03.023Z,977.98
2023-04-21T07:16:03.142Z,978.12
2023-04-21T07:17:03.184Z,978.00
2023-04-21T07:18:03.144Z,978.11
2023-04-21T07:19:03.062Z,978.08
2023-04-21T07:20:03.122Z,978.02
2023-04-21T07:21:03.147Z,978.14
2023-04-21T07:22:03.284Z,978.05
2023-04-21T07:23:03.284Z,977.99
2023-04-21T07:24:03.346Z,978.04
2023-04-21T07:25:03.361Z,977.96
2023-04-21T07:26:03.332Z,977.95
2023-04-21T07:27:03.296Z,978.07
2023-04-21T07:28:03.353Z,977.89
2023-04-21T07:29:03.445Z,978.03
2023-04-21T07:30:03.418Z,977.97
2023-04-21T07:31:04.189Z,978.00
2023-04-21T07:32:03.426Z,977.97
2023-04-21T07:33:03.602Z,977.99
2023-04-21T07:34:04.118Z,977.94
2023-04-21T07:35:03.589Z,977.90
2023-04-21T07:36:03.602Z,978.02
2023-04-21T07:37:03.645Z,977.90
2023-04-21T07:38:03.534Z,977.99
2023-04-21T07:39:03.570Z,977.90
2023-04-21T07:40:03.707Z,977.85
2023-04-21T07:41:03.606Z,977.96
2023-04-21T07:42:03.561Z,977.99
2023-04-21T07:43:03.851Z,977.96
2023-04-21T07:44:03.444Z,978.02
2023-04-21T07:45:03.484Z,977.88
2023-04-21T07:46:03.523Z,978.03
2023-04-21T07:47:03.428Z,978.08
2023-04-21T07:48:03.590Z,978.09
2023-04-21T07:49:04.551Z,977.94
2023-04-21T07:50:03.512Z,978.09
2023-04-21T07:51:03.400Z,978.18
2023-04-21T07:52:03.473Z,978.06
2023-04-21T07:53:03.413Z,978.12
2023-04-21T07:54:03.492Z,978.24
2023-04-21T07:55:03.583Z,978.06
2023-04-21T07:56:03.717Z,978.12
2023-04-21T07:57:03.879Z,978.12
2023-04-21T07:58:03.703Z,978.18
2023-04-21T07:59:03.782Z,978.06
2023-04-21T08:00:03.764Z,978.15
2023-04-21T08:01:03.796Z,978.06
2023-04-21T08:02:03.877Z,978.15
2023-04-21T08:03:03.934Z,978.06
2023-04-21T08:04:03.974Z,977.98
2023-04-21T08:05:04.311Z,978.00
2023-04-21T08:06:04.095Z,977.94
2023-04-21T08:07:04.467Z,978.03
2023-04-21T08:08:03.872Z,977.97
2023-04-21T08:09:03.704Z,977.88
2023-04-21T08:10:03.889Z,977.97
2023-04-21T08:11:03.890Z,977.97
2023-04-21T08:12:03.733Z,977.97
2023-04-21T08:13:03.736Z,977.91
2023-04-21T08:14:03.801Z,977.97
2023-04-21T08:15:03.861Z,977.91
2023-04-21T08:16:03.922Z,977.91
2023-04-21T08:17:04.005Z,977.94
2023-04-21T08:18:03.993Z,977.82
2023-04-21T08:19:03.932Z,977.91
2023-04-21T08:20:03.866Z,977.91
2023-04-21T08:21:03.786Z,977.88
2023-04-21T08:22:04.031Z,977.91
2023-04-21T08:23:03.099Z,977.85
2023-04-21T08:24:03.107Z,977.90
2023-04-21T08:25:03.012Z,977.82
2023-04-21T08:26:03.085Z,977.93
2023-04-21T08:27:04.008Z,977.87
2023-04-21T08:28:03.011Z,977.90
2023-04-21T08:29:05.032Z,977.87
2023-04-21T08:30:03.165Z,977.93
2023-04-21T08:31:03.250Z,977.93
2023-04-21T08:32:03.208Z,977.90
2023-04-21T08:33:03.255Z,977.92
2023-04-21T08:34:03.968Z,977.90
2023-04-21T08:35:03.013Z,977.92
2023-04-21T08:36:18.394Z,977.89
2023-04-21T08:37:03.093Z,978.01
2023-04-21T08:38:03.051Z,977.92
2023-04-21T08:39:03.106Z,977.92
2023-04-21T08:40:03.025Z,977.86
2023-04-21T08:41:03.012Z,977.86
2023-04-21T08:42:03.136Z,977.86
2023-04-21T08:43:03.015Z,977.95
2023-04-21T08:44:03.060Z,977.86
2023-04-21T08:45:03.121Z,977.83
2023-04-21T08:46:03.079Z,977.77
2023-04-21T08:47:03.157Z,977.79
2023-04-21T08:48:03.108Z,977.79
2023-04-21T08:49:03.128Z,977.91
2023-04-21T08:50:03.107Z,977.93
2023-04-21T08:51:02.962Z,977.91
2023-04-21T08:52:03.892Z,977.88
2023-04-21T08:53:03.945Z,977.96
2023-04-21T08:54:03.817Z,977.93
2023-04-21T08:55:03.892Z,977.96
2023-04-21T08:56:12.028Z,977.70
2023-04-21T08:57:16.072Z,978.02
2023-04-21T08:58:03.785Z,977.96
2023-04-21T08:59:03.729Z,977.96
2023-04-21T09:00:08.261Z,978.07
2023-04-21T09:01:03.890Z,978.04
2023-04-21T09:02:03.201Z,978.16
2023-04-21T09:03:05.714Z,978.07
2023-04-21T09:04:03.445Z,977.95
2023-04-21T09:05:03.808Z,978.07
2023-04-21T09:06:03.643Z,978.01
2023-04-21T09:07:03.002Z,977.98
2023-04-21T09:08:03.007Z,978.03
2023-04-21T09:09:03.392Z,977.94
2023-04-21T09:10:03.441Z,978.03
2023-04-21T09:11:03.393Z,978.12
2023-04-21T09:12:03.474Z,978.06
2023-04-21T09:13:03.430Z,978.00
2023-04-21T09:14:03.574Z,978.00
2023-04-21T09:15:03.654Z,978.05
2023-04-21T09:16:08.379Z,978.11
2023-04-21T09:17:03.872Z,978.05
2023-04-21T09:18:04.087Z,978.05
2023-04-21T09:19:03.907Z,977.99
2023-04-21T09:20:03.814Z,978.13
2023-04-21T09:21:04.964Z,978.22
2023-04-21T09:22:03.694Z,978.07
2023-04-21T09:23:03.733Z,978.10
2023-04-21T09:24:03.551Z,978.16
2023-04-21T09:25:03.566Z,978.10
2023-04-21T09:26:03.720Z,978.04
2023-04-21T09:27:03.493Z,978.07
2023-04-21T09:28:03.575Z,978.13
2023-04-21T09:29:04.836Z,978.21
2023-04-21T09:30:03.806Z,978.19
2023-04-21T09:31:03.790Z,978.01
2023-04-21T09:32:03.789Z,978.22
2023-04-21T09:33:24.987Z,978.25
2023-04-21T09:34:03.885Z,978.22
2023-04-21T09:35:05.135Z,978.13
2023-04-21T09:36:03.099Z,978.16
2023-04-21T09:37:03.183Z,978.31
2023-04-21T09:38:03.059Z,978.08
2023-04-21T09:39:21.188Z,978.05
2023-04-21T09:40:05.947Z,978.14
2023-04-21T09:41:03.652Z,978.14
2023-04-21T09:42:03.870Z,978.20
2023-04-21T09:43:03.756Z,978.26
2023-04-21T09:44:03.791Z,978.23
2023-04-21T09:46:03.953Z,978.17
2023-04-21T09:47:03.952Z,978.20
2023-04-21T09:48:03.039Z,978.17
2023-04-21T09:49:03.940Z,978.14
2023-04-21T09:50:03.153Z,978.14
2023-04-21T09:51:42.617Z,978.25
2023-04-21T09:52:19.275Z,978.16
2023-04-21T09:53:03.157Z,978.02
2023-04-21T09:54:03.761Z,978.04
2023-04-21T09:55:03.749Z,978.30
2023-04-21T09:56:03.752Z,978.16
2023-04-21T09:57:03.090Z,977.98
2023-04-21T09:58:03.205Z,978.06
2023-04-21T09:59:03.065Z,978.12
2023-04-21T10:00:03.123Z,978.17
2023-04-21T10:01:03.188Z,978.14
2023-04-21T10:02:04.986Z,978.11
2023-04-21T10:03:04.020Z,978.20
2023-04-21T10:04:04.376Z,978.14
2023-04-21T10:05:03.434Z,978.20
2023-04-21T10:06:03.317Z,978.17
2023-04-21T10:07:03.197Z,978.11
2023-04-21T10:08:03.385Z,978.10
2023-04-21T10:09:03.267Z,978.13
2023-04-21T10:10:03.362Z,978.07
2023-04-21T10:11:03.356Z,978.07
2023-04-21T10:12:03.189Z,978.04
2023-04-21T10:13:03.216Z,978.09
2023-04-21T10:14:03.275Z,978.00
2023-04-21T10:15:03.153Z,978.14
2023-04-21T10:16:03.352Z,977.97
2023-04-21T10:17:03.247Z,978.12
2023-04-21T10:18:03.251Z,977.94
2023-04-21T10:19:03.375Z,977.94
2023-04-21T10:20:03.153Z,978.17
2023-04-21T10:21:03.130Z,978.06
2023-04-21T10:22:03.087Z,978.06
2023-04-21T10:23:03.065Z,978.12
2023-04-21T10:24:03.192Z,978.06
2023-04-21T10:25:03.273Z,978.26
2023-04-21T10:26:03.213Z,978.18
2023-04-21T10:27:03.204Z,978.12
2023-04-21T10:28:03.227Z,978.06
2023-04-21T10:29:03.293Z,978.09
2023-04-21T10:30:03.596Z,978.06
2023-04-21T10:31:03.574Z,978.12
2023-04-21T10:32:03.596Z,978.06
2023-04-21T10:33:03.838Z,978.15
2023-04-21T10:34:03.581Z,978.14
2023-04-21T10:35:03.551Z,978.20
2023-04-21T10:36:03.647Z,978.02
2023-04-21T10:37:03.655Z,978.05
2023-04-21T10:38:03.527Z,977.99
2023-04-21T10:39:03.621Z,978.14
2023-04-21T10:40:03.660Z,978.28
2023-04-21T10:41:03.629Z,978.11
2023-04-21T10:42:03.571Z,977.96
2023-04-21T10:43:03.496Z,978.07
2023-04-21T10:44:03.602Z,978.07
2023-04-21T10:45:03.595Z,977.90
2023-04-21T10:46:03.558Z,977.95
2023-04-21T10:47:03.598Z,978.10
2023-04-21T10:48:03.538Z,978.21
2023-04-21T10:49:03.453Z,978.06
2023-04-21T10:50:03.351Z,978.09
2023-04-21T10:51:03.385Z,978.15
2023-04-21T10:52:03.642Z,977.94
2023-04-21T10:53:03.499Z,978.03
2023-04-21T10:54:03.457Z,978.11
2023-04-21T10:55:03.486Z,978.08
2023-04-21T10:56:03.522Z,978.03
2023-04-21T10:57:03.492Z,977.99
2023-04-21T10:58:03.570Z,977.85
2023-04-21T10:59:03.645Z,977.90
2023-04-21T11:00:03.548Z,978.02
2023-04-21T11:01:03.635Z,978.05
2023-04-21T11:02:03.796Z,977.96
2023-04-21T11:03:03.899Z,978.22
2023-04-21T11:04:03.927Z,977.96
2023-04-21T11:05:03.723Z,977.81
2023-04-21T11:06:03.582Z,977.96
2023-04-21T11:07:03.635Z,977.93
2023-04-21T11:08:03.655Z,978.02
2023-04-21T11:09:03.654Z,978.16
2023-04-21T11:10:03.711Z,977.99
2023-04-21T11:11:03.694Z,978.16
2023-04-21T11:12:03.671Z,978.02
2023-04-21T11:13:03.685Z,977.87
2023-04-21T11:14:03.610Z,977.90
2023-04-21T11:15:03.593Z,977.96
2023-04-21T11:16:03.744Z,977.84
2023-04-21T11:17:03.794Z,977.96
2023-04-21T11:18:03.880Z,977.90
2023-04-21T11:19:03.794Z,977.90
2023-04-21T11:20:03.728Z,977.96
2023-04-21T11:21:03.790Z,977.90
2023-04-21T11:22:02.950Z,977.90
2023-04-21T11:23:03.003Z,978.07
2023-04-21T11:24:03.063Z,977.81
2023-04-21T11:25:03.242Z,978.02
2023-04-21T11:26:03.204Z,977.90
2023-04-21T11:27:03.434Z,977.84
2023-04-21T11:28:03.356Z,977.84
2023-04-21T11:29:03.417Z,977.87
2023-04-21T11:30:03.424Z,977.81
2023-04-21T11:31:03.588Z,977.90
2023-04-21T11:32:03.479Z,977.84
2023-04-21T11:33:03.511Z,977.72
2023-04-21T11:34:03.280Z,977.81
2023-04-21T11:35:03.372Z,977.78
2023-04-21T11:36:03.620Z,977.80
2023-04-21T11:37:03.599Z,977.78
2023-04-21T11:38:03.605Z,977.83
2023-04-21T11:39:03.801Z,977.61
2023-04-21T11:40:03.868Z,977.61
2023-04-21T11:41:03.896Z,977.78
2023-04-21T11:42:03.047Z,977.66
2023-04-21T11:43:03.087Z,977.66
2023-04-21T11:44:03.980Z,977.55
2023-04-21T11:45:02.991Z,977.68
2023-04-21T11:46:03.190Z,977.89
2023-04-21T11:47:03.197Z,977.83
2023-04-21T11:48:03.216Z,977.80
2023-04-21T11:49:03.045Z,977.97
2023-04-21T11:50:02.993Z,977.86
2023-04-21T11:51:03.057Z,977.68
2023-04-21T11:52:03.095Z,977.83
2023-04-21T11:53:03.116Z,977.77
2023-04-21T11:54:03.154Z,977.80
2023-04-21T11:55:03.536Z,977.68
2023-04-21T11:56:03.509Z,977.80
2023-04-21T11:57:03.679Z,977.68
2023-04-21T11:58:03.773Z,977.76
2023-04-21T11:59:05.029Z,977.82
2023-04-21T12:00:03.124Z,977.76
2023-04-21T12:01:03.889Z,977.73
2023-04-21T12:02:03.054Z,977.73
2023-04-21T12:03:03.254Z,977.70
2023-04-21T12:04:03.378Z,977.79
2023-04-21T12:05:03.847Z,977.70
2023-04-21T12:06:03.314Z,977.73
2023-04-21T12:07:03.276Z,977.87
2023-04-21T12:08:03.188Z,977.87
2023-04-21T12:09:03.191Z,977.99
2023-04-21T12:10:03.131Z,977.73
2023-04-21T12:11:03.166Z,977.96
2023-04-21T12:12:03.208Z,978.25
2023-04-21T12:13:03.267Z,977.93
2023-04-21T12:14:03.241Z,977.93
2023-04-21T12:15:03.324Z,977.85
2023-04-21T12:16:03.611Z,977.88
2023-04-21T12:17:03.438Z,977.79
2023-04-21T12:18:03.090Z,977.87
2023-04-21T12:19:03.070Z,977.79
2023-04-21T12:20:03.232Z,977.73
2023-04-21T12:21:03.350Z,977.76
2023-04-21T12:22:03.474Z,977.70
2023-04-21T12:23:03.474Z,977.79
2023-04-21T12:24:03.524Z,977.87
2023-04-21T12:25:03.599Z,977.82
2023-04-21T12:26:03.457Z,977.90
2023-04-21T12:27:03.382Z,977.76
2023-04-21T12:28:03.309Z,977.84
2023-04-21T12:29:03.163Z,977.70
2023-04-21T12:30:03.195Z,977.50